createdAt,value
2019-03-29T00:00:32.231Z,11.20
2019-03-29T00:02:58.534Z,12.43
2019-03-29T00:05:24.530Z,12.07
2019-03-29T00:07:50.523Z,11.53
2019-03-29T00:10:16.520Z,15.10
2019-03-29T00:12:42.552Z,9.43
2019-03-29T00:15:09.076Z,9.40
2019-03-29T00:17:35.400Z,11.60
2019-03-29T00:20:06.159Z,13.60
2019-03-29T00:22:31.569Z,12.77
2019-03-29T00:24:57.580Z,10.23
2019-03-29T00:27:23.902Z,11.13
2019-03-29T00:29:50.248Z,12.33
2019-03-29T00:32:16.241Z,15.30
2019-03-29T00:34:42.314Z,12.43
2019-03-29T00:37:08.336Z,13.57
2019-03-29T00:39:34.324Z,10.17
2019-03-29T00:42:00.335Z,10.97
2019-03-29T00:44:26.976Z,14.03
2019-03-29T00:46:53.531Z,9.03
2019-03-29T00:49:19.524Z,13.40
2019-03-29T00:51:45.524Z,14.23
2019-03-29T00:54:11.515Z,12.13
2019-03-29T00:56:38.379Z,13.73
2019-03-29T00:59:04.512Z,10.97
2019-03-29T01:01:30.524Z,10.33
2019-03-29T01:03:56.518Z,16.93
2019-03-29T01:06:22.520Z,10.53
2019-03-29T01:08:48.772Z,13.03
2019-03-29T01:11:14.952Z,16.27
2019-03-29T01:13:41.344Z,10.53
2019-03-29T01:16:07.673Z,12.20
2019-03-29T01:18:34.004Z,13.53
2019-03-29T01:21:00.331Z,13.83
2019-03-29T01:23:26.660Z,12.17
2019-03-29T01:25:52.660Z,11.00
2019-03-29T01:28:18.673Z,12.43
2019-03-29T01:30:44.697Z,12.57
2019-03-29T01:33:10.963Z,9.50
2019-03-29T01:35:36.956Z,11.90
2019-03-29T01:38:02.973Z,13.03
2019-03-29T01:40:28.981Z,14.10
2019-03-29T01:42:54.962Z,12.30
2019-03-29T01:45:21.404Z,12.53
2019-03-29T01:47:47.402Z,12.90
2019-03-29T01:50:13.400Z,15.03
2019-03-29T01:52:39.383Z,15.23
2019-03-29T01:55:05.497Z,10.77
2019-03-29T01:57:32.240Z,14.27
2019-03-29T01:59:58.908Z,10.27
2019-03-29T02:02:24.895Z,11.97
2019-03-29T02:04:50.916Z,12.93
2019-03-29T02:07:16.923Z,12.60
2019-03-29T02:09:42.916Z,14.87
2019-03-29T02:12:08.912Z,12.03
2019-03-29T02:14:34.917Z,12.40
2019-03-29T02:17:00.909Z,15.83
2019-03-29T02:19:27.169Z,11.43
2019-03-29T02:21:53.156Z,13.13
2019-03-29T02:24:19.164Z,11.40
2019-03-29T02:26:45.160Z,11.40
2019-03-29T02:29:11.287Z,14.37
2019-03-29T02:31:41.779Z,17.33
2019-03-29T02:34:05.277Z,12.63
2019-03-29T02:36:31.280Z,15.17
2019-03-29T02:38:58.949Z,12.13
2019-03-29T02:41:25.207Z,11.10
2019-03-29T02:43:51.197Z,13.57
2019-03-29T02:46:17.201Z,19.80
2019-03-29T02:48:44.578Z,14.70
2019-03-29T02:51:10.832Z,12.40
2019-03-29T02:53:36.845Z,13.63
2019-03-29T02:56:02.933Z,14.27
2019-03-29T02:58:28.923Z,12.40
2019-03-29T03:00:55.134Z,13.73
2019-03-29T03:03:21.434Z,11.77
2019-03-29T03:05:47.433Z,12.60
2019-03-29T03:08:13.801Z,12.83
2019-03-29T03:10:40.123Z,15.03
2019-03-29T03:13:06.356Z,12.03
2019-03-29T03:15:32.345Z,13.53
2019-03-29T03:17:58.341Z,13.93
2019-03-29T03:20:24.341Z,14.23
2019-03-29T03:22:50.361Z,15.37
2019-03-29T03:25:16.681Z,16.77
2019-03-29T03:27:42.681Z,13.90
2019-03-29T03:30:10.569Z,14.83
2019-03-29T03:32:36.772Z,14.37
2019-03-29T03:35:06.071Z,10.00
2019-03-29T03:37:32.337Z,12.37
2019-03-29T03:39:58.340Z,15.43
2019-03-29T03:42:24.584Z,11.43
2019-03-29T03:44:50.601Z,14.17
2019-03-29T03:47:16.592Z,12.90
2019-03-29T03:49:42.608Z,14.87
2019-03-29T03:52:08.582Z,12.47
2019-03-29T03:54:35.799Z,9.87
2019-03-29T03:57:01.785Z,11.17
2019-03-29T03:59:27.783Z,13.73
2019-03-29T04:01:54.008Z,11.80
2019-03-29T04:04:20.013Z,15.97
2019-03-29T04:06:45.998Z,15.07
2019-03-29T04:09:12.007Z,13.13
2019-03-29T04:11:37.987Z,12.17
2019-03-29T04:14:03.981Z,13.37
2019-03-29T04:16:29.999Z,10.87
2019-03-29T04:18:55.966Z,18.43
2019-03-29T04:21:21.968Z,11.57
2019-03-29T04:23:47.969Z,10.37
2019-03-29T04:26:14.262Z,14.90
2019-03-29T04:28:40.259Z,10.67
2019-03-29T04:31:06.279Z,9.00
2019-03-29T04:33:32.557Z,12.10
2019-03-29T04:35:58.878Z,11.83
2019-03-29T04:38:24.883Z,15.57
2019-03-29T04:40:51.235Z,11.27
2019-03-29T04:43:17.322Z,10.50
2019-03-29T04:45:43.322Z,13.63
2019-03-29T04:48:09.311Z,10.73
2019-03-29T04:50:35.329Z,9.97
2019-03-29T04:53:01.290Z,13.70
2019-03-29T04:55:27.296Z,12.30
2019-03-29T04:57:53.299Z,11.67
2019-03-29T05:00:19.312Z,13.90
2019-03-29T05:02:45.318Z,12.43
2019-03-29T05:05:11.680Z,17.77
2019-03-29T05:07:37.705Z,13.87
2019-03-29T05:10:19.963Z,13.60
2019-03-29T05:12:33.588Z,11.17
2019-03-29T05:14:59.579Z,14.20
2019-03-29T05:17:25.585Z,14.53
2019-03-29T05:19:51.564Z,17.77
2019-03-29T05:22:17.565Z,13.83
2019-03-29T05:24:43.956Z,12.13
2019-03-29T05:27:09.958Z,13.40
2019-03-29T05:29:35.942Z,14.13
2019-03-29T05:32:01.949Z,11.87
2019-03-29T05:34:27.934Z,14.10
2019-03-29T05:36:53.927Z,12.90
2019-03-29T05:39:19.938Z,13.67
2019-03-29T05:41:45.954Z,11.00
2019-03-29T05:44:11.944Z,13.00
2019-03-29T05:46:37.935Z,9.53
2019-03-29T05:49:03.946Z,14.10
2019-03-29T05:51:30.332Z,12.83
2019-03-29T05:53:56.324Z,13.00
2019-03-29T05:56:22.307Z,10.20
2019-03-29T05:58:48.297Z,14.10
2019-03-29T06:01:14.288Z,13.03
2019-03-29T06:03:40.303Z,11.20
2019-03-29T06:06:06.295Z,13.80
2019-03-29T06:08:32.292Z,12.07
2019-03-29T06:10:58.291Z,12.20
2019-03-29T06:13:24.300Z,14.80
2019-03-29T06:15:50.570Z,11.43
2019-03-29T06:18:16.907Z,15.13
2019-03-29T06:20:42.892Z,10.63
2019-03-29T06:23:08.901Z,12.20
2019-03-29T06:25:34.895Z,10.70
2019-03-29T06:28:00.884Z,12.10
2019-03-29T06:30:27.992Z,15.67
2019-03-29T06:32:53.979Z,12.97
2019-03-29T06:35:20.311Z,13.63
2019-03-29T06:37:46.945Z,13.43
2019-03-29T06:40:16.740Z,18.57
2019-03-29T06:42:42.988Z,11.97
2019-03-29T06:45:09.080Z,15.43
2019-03-29T06:47:35.067Z,15.40
2019-03-29T06:50:01.074Z,13.37
2019-03-29T06:52:27.384Z,14.73
2019-03-29T06:54:53.403Z,12.60
2019-03-29T06:57:19.391Z,19.30
2019-03-29T06:59:45.392Z,11.10
2019-03-29T07:02:11.397Z,14.80
2019-03-29T07:04:37.530Z,14.83
2019-03-29T07:07:03.834Z,14.33
2019-03-29T07:09:30.065Z,12.43
2019-03-29T07:11:56.062Z,13.77
2019-03-29T07:14:22.327Z,14.87
2019-03-29T07:16:48.344Z,16.33
2019-03-29T07:19:14.332Z,15.93
2019-03-29T07:21:40.335Z,13.63
2019-03-29T07:24:06.324Z,15.53
2019-03-29T07:26:32.327Z,13.47
2019-03-29T07:28:58.321Z,16.23
2019-03-29T07:31:24.315Z,12.55
2019-03-29T07:33:50.303Z,16.73
2019-03-29T07:36:16.302Z,14.80
2019-03-29T07:38:42.299Z,13.45
2019-03-29T07:41:08.298Z,12.43
2019-03-29T07:43:34.509Z,13.00
2019-03-29T07:46:00.515Z,12.10
2019-03-29T07:48:26.490Z,14.43
2019-03-29T07:50:52.497Z,17.53
2019-03-29T07:53:18.487Z,13.33
2019-03-29T07:55:44.462Z,14.57
2019-03-29T07:58:10.462Z,17.30
2019-03-29T08:00:36.446Z,15.83
2019-03-29T08:03:02.465Z,16.17
2019-03-29T08:05:28.455Z,15.37
2019-03-29T08:07:54.454Z,13.30
2019-03-29T08:10:26.088Z,14.67
2019-03-29T08:12:49.710Z,15.67
2019-03-29T08:15:16.003Z,14.53
2019-03-29T08:17:42.006Z,15.37
2019-03-29T08:20:37.313Z,15.47
2019-03-29T08:22:36.347Z,19.30
2019-03-29T08:25:02.628Z,17.83
2019-03-29T08:27:28.883Z,14.83
2019-03-29T08:29:54.895Z,18.17
2019-03-29T08:32:20.910Z,14.63
2019-03-29T08:34:47.159Z,15.83
2019-03-29T08:37:13.160Z,11.20
2019-03-29T08:39:39.163Z,12.70
2019-03-29T08:42:05.173Z,12.93
2019-03-29T08:44:31.179Z,13.80
2019-03-29T08:46:57.235Z,11.93
2019-03-29T08:49:23.384Z,13.43
2019-03-29T08:51:49.641Z,15.67
2019-03-29T08:54:15.649Z,15.00
2019-03-29T08:56:41.636Z,13.93
2019-03-29T08:59:07.619Z,15.43
2019-03-29T09:01:34.035Z,11.80
2019-03-29T09:04:04.982Z,16.57
2019-03-29T09:06:30.145Z,11.57
2019-03-29T09:08:56.686Z,12.53
2019-03-29T09:11:22.695Z,13.30
2019-03-29T09:13:48.978Z,11.33
2019-03-29T09:16:15.014Z,11.93
2019-03-29T09:18:40.987Z,15.27
2019-03-29T09:21:06.999Z,15.30
2019-03-29T09:23:32.997Z,13.23
2019-03-29T09:25:58.988Z,13.37
2019-03-29T09:28:24.997Z,12.03
2019-03-29T09:30:50.999Z,12.33
2019-03-29T09:33:17.284Z,11.50
2019-03-29T09:35:43.521Z,10.83
2019-03-29T09:38:09.516Z,13.73
2019-03-29T09:40:35.512Z,13.53
2019-03-29T09:43:08.813Z,11.37
2019-03-29T09:45:29.403Z,12.90
2019-03-29T09:47:56.036Z,15.83
2019-03-29T09:50:23.190Z,12.33
2019-03-29T09:52:51.358Z,11.00
2019-03-29T09:55:18.953Z,10.17
2019-03-29T09:57:45.228Z,7.27
2019-03-29T10:00:21.093Z,8.37
2019-03-29T10:02:40.509Z,12.23
2019-03-29T10:05:06.697Z,8.47
2019-03-29T10:07:32.692Z,11.43
2019-03-29T10:09:58.681Z,10.37
2019-03-29T10:12:24.903Z,12.23
2019-03-29T10:14:51.160Z,14.07
2019-03-29T10:17:17.193Z,9.97
2019-03-29T10:19:43.176Z,8.60
2019-03-29T10:22:09.443Z,10.30
2019-03-29T10:24:35.442Z,10.27
2019-03-29T10:27:01.436Z,7.77
2019-03-29T10:29:27.452Z,8.00
2019-03-29T10:31:53.439Z,11.30
2019-03-29T10:34:19.444Z,8.73
2019-03-29T10:36:45.438Z,8.77
2019-03-29T10:39:11.841Z,8.27
2019-03-29T10:41:38.123Z,9.87
2019-03-29T10:44:04.442Z,7.73
2019-03-29T10:46:30.421Z,8.63
2019-03-29T10:48:56.732Z,8.03
2019-03-29T10:51:22.723Z,7.73
2019-03-29T10:53:48.737Z,8.00
2019-03-29T10:56:14.730Z,8.47
2019-03-29T10:58:40.736Z,7.60
2019-03-29T11:01:06.731Z,7.27
2019-03-29T11:03:32.732Z,5.50
2019-03-29T11:05:58.718Z,6.73
2019-03-29T11:08:25.046Z,7.67
2019-03-29T11:10:51.034Z,8.97
2019-03-29T11:13:17.063Z,6.23
2019-03-29T11:15:43.051Z,6.80
2019-03-29T11:18:09.158Z,6.47
2019-03-29T11:20:35.374Z,7.00
2019-03-29T11:23:01.779Z,9.13
2019-03-29T11:25:27.768Z,7.47
2019-03-29T11:27:53.780Z,7.47
2019-03-29T11:30:19.759Z,9.43
2019-03-29T11:32:46.065Z,5.10
2019-03-29T11:35:12.419Z,5.60
2019-03-29T11:37:38.421Z,7.23
2019-03-29T11:40:06.201Z,6.43
2019-03-29T11:42:32.443Z,6.17
2019-03-29T11:44:58.786Z,5.43
2019-03-29T11:47:26.583Z,5.37
2019-03-29T11:49:53.039Z,4.93
2019-03-29T11:52:19.146Z,5.10
2019-03-29T11:54:46.384Z,5.97
2019-03-29T11:57:12.379Z,7.53
2019-03-29T11:59:40.215Z,5.30
2019-03-29T12:02:08.055Z,4.77
2019-03-29T12:04:34.044Z,5.23
2019-03-29T12:07:03.390Z,7.37
2019-03-29T12:09:29.563Z,4.80
2019-03-29T12:11:55.564Z,5.23
2019-03-29T12:14:22.380Z,6.63
2019-03-29T12:16:48.692Z,5.17
2019-03-29T12:19:14.703Z,8.23
2019-03-29T12:21:40.686Z,6.17
2019-03-29T12:24:10.468Z,5.23
2019-03-29T12:26:36.763Z,4.77
2019-03-29T12:29:02.960Z,4.53
2019-03-29T12:31:30.878Z,6.57
2019-03-29T12:33:56.872Z,6.03
2019-03-29T12:36:22.875Z,4.47
2019-03-29T12:38:48.887Z,3.77
2019-03-29T12:41:14.868Z,5.97
2019-03-29T12:43:54.613Z,5.23
2019-03-29T12:46:09.351Z,4.70
2019-03-29T12:48:35.567Z,4.27
2019-03-29T12:51:01.558Z,5.50
2019-03-29T12:53:27.571Z,7.17
2019-03-29T12:55:53.567Z,3.77
2019-03-29T12:58:19.570Z,4.50
2019-03-29T13:00:45.570Z,5.43
2019-03-29T13:03:11.566Z,3.47
2019-03-29T13:05:37.849Z,5.33
2019-03-29T13:08:03.857Z,6.00
2019-03-29T13:10:29.867Z,5.43
2019-03-29T13:12:56.542Z,4.90
2019-03-29T13:15:22.873Z,4.50
2019-03-29T13:17:49.107Z,4.30
2019-03-29T13:20:15.109Z,3.37
2019-03-29T13:22:41.088Z,3.33
2019-03-29T13:25:07.891Z,4.93
2019-03-29T13:27:34.082Z,7.60
2019-03-29T13:30:00.163Z,3.40
2019-03-29T13:32:26.376Z,4.00
2019-03-29T13:34:52.602Z,4.83
2019-03-29T13:37:18.596Z,4.10
2019-03-29T13:39:44.589Z,4.50
2019-03-29T13:42:10.582Z,5.87
2019-03-29T13:44:36.899Z,3.37
2019-03-29T13:47:02.899Z,4.53
2019-03-29T13:49:29.159Z,5.53
2019-03-29T13:51:55.143Z,5.10
2019-03-29T13:54:21.164Z,3.80
2019-03-29T13:56:47.143Z,4.13
2019-03-29T13:59:14.066Z,3.17
2019-03-29T14:01:40.755Z,3.63
2019-03-29T14:04:06.748Z,4.70
2019-03-29T14:06:32.809Z,4.87
2019-03-29T14:08:58.792Z,4.50
2019-03-29T14:11:25.006Z,4.83
2019-03-29T14:13:51.003Z,5.10
2019-03-29T14:16:17.011Z,5.73
2019-03-29T14:18:43.222Z,5.50
2019-03-29T14:21:09.720Z,6.03
2019-03-29T14:23:35.727Z,3.77
2019-03-29T14:26:01.738Z,9.83
2019-03-29T14:28:27.728Z,4.13
2019-03-29T14:30:53.721Z,5.47
2019-03-29T14:33:19.721Z,5.80
2019-03-29T14:35:45.975Z,3.60
2019-03-29T14:38:11.982Z,3.90
2019-03-29T14:40:37.984Z,4.50
2019-03-29T14:43:03.996Z,3.57
2019-03-29T14:45:30.087Z,5.27
2019-03-29T14:47:56.090Z,3.60
2019-03-29T14:50:22.083Z,5.80
2019-03-29T14:52:48.092Z,4.00
2019-03-29T14:55:14.083Z,3.77
2019-03-29T14:57:40.079Z,5.17
2019-03-29T15:00:08.479Z,10.23
2019-03-29T15:02:34.487Z,5.80
2019-03-29T15:05:00.723Z,4.17
2019-03-29T15:07:26.949Z,7.00
2019-03-29T15:09:54.150Z,3.10
2019-03-29T15:12:20.165Z,4.07
2019-03-29T15:14:46.142Z,4.23
2019-03-29T15:17:12.139Z,3.90
2019-03-29T15:19:38.137Z,5.43
2019-03-29T15:22:04.128Z,4.57
2019-03-29T15:24:30.450Z,6.63
2019-03-29T15:26:56.682Z,5.60
2019-03-29T15:29:22.693Z,4.40
2019-03-29T15:31:48.704Z,5.07
2019-03-29T15:34:14.695Z,6.83
2019-03-29T15:36:40.682Z,6.00
2019-03-29T15:39:07.609Z,5.43
2019-03-29T15:41:33.601Z,4.53
2019-03-29T15:43:59.603Z,5.87
2019-03-29T15:46:25.595Z,3.40
2019-03-29T15:48:51.596Z,4.87
2019-03-29T15:51:17.853Z,3.30
2019-03-29T15:53:43.853Z,4.37
2019-03-29T15:56:10.112Z,4.07
2019-03-29T15:58:36.121Z,3.53
2019-03-29T16:01:02.117Z,3.17
2019-03-29T16:03:28.119Z,3.70
2019-03-29T16:05:54.394Z,5.40
2019-03-29T16:08:20.403Z,8.17
2019-03-29T16:10:46.403Z,4.77
2019-03-29T16:13:13.192Z,3.90
2019-03-29T16:15:39.191Z,3.17
2019-03-29T16:18:05.187Z,3.47
2019-03-29T16:20:31.194Z,3.83
2019-03-29T16:22:57.492Z,3.80
2019-03-29T16:25:23.492Z,4.67
2019-03-29T16:27:49.485Z,4.10
2019-03-29T16:30:15.908Z,3.13
2019-03-29T16:32:41.886Z,3.47
2019-03-29T16:35:08.195Z,3.97
2019-03-29T16:37:34.179Z,3.50
2019-03-29T16:40:00.366Z,5.67
2019-03-29T16:42:26.446Z,3.37
2019-03-29T16:44:52.555Z,3.47
2019-03-29T16:47:18.968Z,6.00
2019-03-29T16:49:45.191Z,4.10
2019-03-29T16:52:11.187Z,3.40
2019-03-29T16:54:37.448Z,4.67
2019-03-29T16:57:03.439Z,3.60
2019-03-29T16:59:29.429Z,3.33
2019-03-29T17:01:55.423Z,3.10
2019-03-29T17:04:21.411Z,2.67
2019-03-29T17:06:47.673Z,5.37
2019-03-29T17:09:13.675Z,6.70
2019-03-29T17:11:39.691Z,4.57
2019-03-29T17:14:05.727Z,4.30
2019-03-29T17:16:31.968Z,5.93
2019-03-29T17:18:58.414Z,3.73
2019-03-29T17:21:24.400Z,9.93
2019-03-29T17:23:52.739Z,10.03
2019-03-29T17:26:18.307Z,4.07
2019-03-29T17:28:44.303Z,3.03
2019-03-29T17:31:12.198Z,5.27
2019-03-29T17:33:38.194Z,4.03
2019-03-29T17:36:04.209Z,3.60
2019-03-29T17:38:30.223Z,4.40
2019-03-29T17:40:56.220Z,4.03
2019-03-29T17:43:22.548Z,5.90
2019-03-29T17:45:48.876Z,2.97
2019-03-29T17:48:14.968Z,3.47
2019-03-29T17:50:41.439Z,4.60
2019-03-29T17:53:07.777Z,4.17
2019-03-29T17:55:33.773Z,3.07
2019-03-29T17:57:59.763Z,6.63
2019-03-29T18:00:27.367Z,5.33
2019-03-29T18:02:53.576Z,5.33
2019-03-29T18:05:19.571Z,5.00
2019-03-29T18:07:45.580Z,3.73
2019-03-29T18:10:11.672Z,7.33
2019-03-29T18:12:38.009Z,1.73
2019-03-29T18:15:05.899Z,3.40
2019-03-29T18:17:31.890Z,2.60
2019-03-29T18:19:57.917Z,3.50
2019-03-29T18:22:23.912Z,2.40
2019-03-29T18:24:49.950Z,3.70
2019-03-29T18:27:15.949Z,3.47
2019-03-29T18:29:41.944Z,3.47
2019-03-29T18:32:08.269Z,2.90
2019-03-29T18:34:34.303Z,6.03
2019-03-29T18:37:00.511Z,8.50
2019-03-29T18:39:27.348Z,6.63
2019-03-29T18:41:53.783Z,8.93
2019-03-29T18:44:19.762Z,10.10
2019-03-29T18:46:45.779Z,13.70
2019-03-29T18:49:11.807Z,30.70
2019-03-29T18:51:37.819Z,17.40
2019-03-29T18:54:03.811Z,8.10
2019-03-29T18:56:30.125Z,5.27
2019-03-29T18:58:56.127Z,7.87
2019-03-29T19:01:22.122Z,5.00
2019-03-29T19:03:48.117Z,7.20
2019-03-29T19:06:14.096Z,9.53
2019-03-29T19:08:40.300Z,3.30
2019-03-29T19:11:06.289Z,5.27
2019-03-29T19:13:32.297Z,7.40
2019-03-29T19:15:58.279Z,3.00
2019-03-29T19:18:24.388Z,3.80
2019-03-29T19:20:50.492Z,9.43
2019-03-29T19:23:16.583Z,7.97
2019-03-29T19:25:42.556Z,4.07
2019-03-29T19:28:08.560Z,4.20
2019-03-29T19:30:35.753Z,5.53
2019-03-29T19:33:01.751Z,5.10
2019-03-29T19:35:27.979Z,5.93
2019-03-29T19:37:53.987Z,6.13
2019-03-29T19:40:20.212Z,12.27
2019-03-29T19:42:46.534Z,6.23
2019-03-29T19:45:14.133Z,4.87
2019-03-29T19:47:40.235Z,5.97
2019-03-29T19:50:06.967Z,3.90
2019-03-29T19:52:33.211Z,4.90
2019-03-29T19:55:01.280Z,2.30
2019-03-29T19:57:27.138Z,4.43
2019-03-29T19:59:53.116Z,4.13
2019-03-29T20:02:19.442Z,4.33
2019-03-29T20:04:45.690Z,2.40
2019-03-29T20:07:11.708Z,4.20
2019-03-29T20:09:37.707Z,3.97
2019-03-29T20:12:03.691Z,3.60
2019-03-29T20:14:29.707Z,3.63
2019-03-29T20:16:55.732Z,5.77
2019-03-29T20:19:21.735Z,9.17
2019-03-29T20:21:48.042Z,5.00
2019-03-29T20:24:14.291Z,3.13
2019-03-29T20:26:40.521Z,4.10
2019-03-29T20:29:06.750Z,3.17
2019-03-29T20:31:33.007Z,4.00
2019-03-29T20:33:58.999Z,3.43
2019-03-29T20:36:24.995Z,5.57
2019-03-29T20:38:51.002Z,3.23
2019-03-29T20:41:16.982Z,4.83
2019-03-29T20:43:42.983Z,4.13
2019-03-29T20:46:08.969Z,5.23
2019-03-29T20:48:34.967Z,4.33
2019-03-29T20:51:00.960Z,5.03
2019-03-29T20:53:26.943Z,8.90
2019-03-29T20:55:52.960Z,4.93
2019-03-29T20:58:19.266Z,9.17
2019-03-29T21:00:45.284Z,7.40
2019-03-29T21:03:11.298Z,8.20
2019-03-29T21:05:37.304Z,6.43
2019-03-29T21:08:03.310Z,8.47
2019-03-29T21:10:29.318Z,8.50
2019-03-29T21:12:55.330Z,6.80
2019-03-29T21:15:21.710Z,7.87
2019-03-29T21:17:56.388Z,8.27
2019-03-29T21:20:15.819Z,8.40
2019-03-29T21:22:41.799Z,9.37
2019-03-29T21:25:08.300Z,9.30
2019-03-29T21:27:34.815Z,8.37
2019-03-29T21:30:00.783Z,8.90
2019-03-29T21:32:26.780Z,8.60
2019-03-29T21:34:52.798Z,9.17
2019-03-29T21:37:19.101Z,9.77
2019-03-29T21:39:45.432Z,8.43
2019-03-29T21:42:11.426Z,10.60
2019-03-29T21:44:37.451Z,7.47
2019-03-29T21:47:03.716Z,10.00
2019-03-29T21:49:29.702Z,12.60
2019-03-29T21:51:55.707Z,9.87
2019-03-29T21:54:21.987Z,9.13
2019-03-29T21:56:47.988Z,11.07
2019-03-29T21:59:14.234Z,7.93
2019-03-29T22:01:40.252Z,7.30
2019-03-29T22:04:06.243Z,4.80
2019-03-29T22:06:32.252Z,7.30
2019-03-29T22:08:58.238Z,7.17
2019-03-29T22:11:24.247Z,7.07
2019-03-29T22:13:50.454Z,7.57
2019-03-29T22:16:16.457Z,8.73
2019-03-29T22:18:42.479Z,8.10
2019-03-29T22:21:08.464Z,5.43
2019-03-29T22:23:34.455Z,8.43
2019-03-29T22:26:00.443Z,6.63
2019-03-29T22:28:26.451Z,6.00
2019-03-29T22:30:52.425Z,8.77
2019-03-29T22:33:18.686Z,8.10
2019-03-29T22:35:44.692Z,10.70
2019-03-29T22:38:10.947Z,6.90
2019-03-29T22:40:36.939Z,6.63
2019-03-29T22:43:03.207Z,8.03
2019-03-29T22:45:29.199Z,6.37
2019-03-29T22:47:55.210Z,6.10
2019-03-29T22:50:21.190Z,5.97
2019-03-29T22:52:47.290Z,5.93
2019-03-29T22:55:13.295Z,6.33
2019-03-29T22:57:40.091Z,6.10
2019-03-29T23:00:13.183Z,8.57
2019-03-29T23:02:39.475Z,7.93
2019-03-29T23:05:06.629Z,7.40
2019-03-29T23:07:32.749Z,6.80
2019-03-29T23:09:58.757Z,8.07
2019-03-29T23:12:24.755Z,7.10
2019-03-29T23:14:50.859Z,10.17
2019-03-29T23:17:16.838Z,10.13
2019-03-29T23:19:42.839Z,8.97
2019-03-29T23:22:08.822Z,8.93
2019-03-29T23:24:35.147Z,7.83
2019-03-29T23:27:01.138Z,7.60
2019-03-29T23:29:27.169Z,7.23
2019-03-29T23:31:53.140Z,7.03
2019-03-29T23:34:19.147Z,8.87
2019-03-29T23:36:45.128Z,6.10
2019-03-29T23:39:11.407Z,8.23
2019-03-29T23:41:37.390Z,6.63
2019-03-29T23:44:03.509Z,10.50
2019-03-29T23:46:29.499Z,9.50
2019-03-29T23:48:55.491Z,6.77
2019-03-29T23:51:21.498Z,7.47
2019-03-29T23:53:47.491Z,8.93
2019-03-29T23:56:13.495Z,9.33
2019-03-29T23:58:39.773Z,8.57
